Terminal Aerodrome Forecast
Issued by NWS South Bend, IN

Home | Current Version | Previous Version | Text Only | Print | Product List | Glossary On
Versions: 1 2 3 4 5 6 7 8 9 10 11 12 13 14 15 16
000
FTUS43 KIWX 042300
TAFSBN
TAF
KSBN 042320Z 0500/0524 36004KT P6SM FEW040 BKN120
     FM050700 07008KT 6SM -SHRA VCTS BKN035CB OVC050
     FM050900 08008KT 4SM -SHRA VCTS OVC030CB
     FM051300 10007KT 4SM -SHRA OVC015=

USA.gov is the U.S. government's official web portal to all federal, state and local government web resources and services.